sensor_id;sensor_type;location;lat;lon;timestamp;pressure;altitude;pressure_sealevel;temperature
40624;BMP280;26325;48.594;11.650;2022-12-18T00:01:24;97824.03;;;-4.96
40624;BMP280;26325;48.594;11.650;2022-12-18T00:03:51;97827.81;;;-4.91
40624;BMP280;26325;48.594;11.650;2022-12-18T00:06:20;97832.50;;;-4.97
40624;BMP280;26325;48.594;11.650;2022-12-18T00:08:47;97842.56;;;-4.87
40624;BMP280;26325;48.594;11.650;2022-12-18T00:11:19;97843.75;;;-5.01
40624;BMP280;26325;48.594;11.650;2022-12-18T00:13:48;97854.06;;;-4.94
40624;BMP280;26325;48.594;11.650;2022-12-18T00:16:17;97842.81;;;-4.90
40624;BMP280;26325;48.594;11.650;2022-12-18T00:18:48;97854.03;;;-4.83
40624;BMP280;26325;48.594;11.650;2022-12-18T00:21:14;97853.91;;;-4.81
40624;BMP280;26325;48.594;11.650;2022-12-18T00:23:46;97842.91;;;-4.80
40624;BMP280;26325;48.594;11.650;2022-12-18T00:26:23;97851.94;;;-4.67
40624;BMP280;26325;48.594;11.650;2022-12-18T00:28:50;97848.41;;;-4.75
40624;BMP280;26325;48.594;11.650;2022-12-18T00:31:20;97845.06;;;-4.65
40624;BMP280;26325;48.594;11.650;2022-12-18T00:33:47;97855.28;;;-4.77
40624;BMP280;26325;48.594;11.650;2022-12-18T00:36:19;97846.63;;;-4.64
40624;BMP280;26325;48.594;11.650;2022-12-18T00:38:46;97842.47;;;-4.55
40624;BMP280;26325;48.594;11.650;2022-12-18T00:41:16;97848.19;;;-4.42
40624;BMP280;26325;48.594;11.650;2022-12-18T00:44:03;97846.91;;;-4.47
40624;BMP280;26325;48.594;11.650;2022-12-18T00:46:31;97850.25;;;-4.47
40624;BMP280;26325;48.594;11.650;2022-12-18T00:48:57;97865.34;;;-4.36
40624;BMP280;26325;48.594;11.650;2022-12-18T00:51:24;97853.91;;;-4.40
40624;BMP280;26325;48.594;11.650;2022-12-18T00:53:50;97859.63;;;-4.38
40624;BMP280;26325;48.594;11.650;2022-12-18T00:56:18;97852.50;;;-4.33
40624;BMP280;26325;48.594;11.650;2022-12-18T00:58:43;97849.41;;;-4.37
40624;BMP280;26325;48.594;11.650;2022-12-18T01:01:09;97851.50;;;-4.41
40624;BMP280;26325;48.594;11.650;2022-12-18T01:03:34;97867.50;;;-4.62
40624;BMP280;26325;48.594;11.650;2022-12-18T01:06:06;97863.63;;;-4.66
40624;BMP280;26325;48.594;11.650;2022-12-18T01:08:33;97871.22;;;-4.77
40624;BMP280;26325;48.594;11.650;2022-12-18T01:10:58;97879.47;;;-4.75
40624;BMP280;26325;48.594;11.650;2022-12-18T01:13:24;97882.31;;;-4.79
40624;BMP280;26325;48.594;11.650;2022-12-18T01:15:50;97883.22;;;-4.80
40624;BMP280;26325;48.594;11.650;2022-12-18T01:18:16;97883.13;;;-4.79
40624;BMP280;26325;48.594;11.650;2022-12-18T01:20:42;97887.94;;;-4.76
40624;BMP280;26325;48.594;11.650;2022-12-18T01:23:07;97896.22;;;-4.95
40624;BMP280;26325;48.594;11.650;2022-12-18T01:25:36;97891.38;;;-4.88
40624;BMP280;26325;48.594;11.650;2022-12-18T01:28:02;97901.47;;;-4.77
40624;BMP280;26325;48.594;11.650;2022-12-18T01:30:28;97901.69;;;-4.80
40624;BMP280;26325;48.594;11.650;2022-12-18T01:32:53;97923.00;;;-4.84
40624;BMP280;26325;48.594;11.650;2022-12-18T01:35:19;97914.28;;;-4.69
40624;BMP280;26325;48.594;11.650;2022-12-18T01:37:47;97919.09;;;-4.66
40624;BMP280;26325;48.594;11.650;2022-12-18T01:40:15;97923.66;;;-4.71
40624;BMP280;26325;48.594;11.650;2022-12-18T01:42:43;97924.38;;;-4.69
40624;BMP280;26325;48.594;11.650;2022-12-18T01:52:57;97921.25;;;-4.62
40624;BMP280;26325;48.594;11.650;2022-12-18T01:55:26;97917.69;;;-4.49
40624;BMP280;26325;48.594;11.650;2022-12-18T01:57:55;97921.81;;;-4.48
40624;BMP280;26325;48.594;11.650;2022-12-18T02:00:23;97925.91;;;-4.47
40624;BMP280;26325;48.594;11.650;2022-12-18T02:02:49;97921.44;;;-4.43
40624;BMP280;26325;48.594;11.650;2022-12-18T02:08:26;97925.47;;;-4.41
40624;BMP280;26325;48.594;11.650;2022-12-18T02:11:12;97910.13;;;-4.49
40624;BMP280;26325;48.594;11.650;2022-12-18T02:16:59;97903.91;;;-4.45
40624;BMP280;26325;48.594;11.650;2022-12-18T02:29:02;97914.78;;;-4.34
40624;BMP280;26325;48.594;11.650;2022-12-18T02:31:36;97901.78;;;-4.29
40624;BMP280;26325;48.594;11.650;2022-12-18T02:34:06;97907.13;;;-4.43
40624;BMP280;26325;48.594;11.650;2022-12-18T02:36:40;97897.13;;;-4.34
40624;BMP280;26325;48.594;11.650;2022-12-18T02:39:09;97893.66;;;-4.22
40624;BMP280;26325;48.594;11.650;2022-12-18T02:41:36;97897.16;;;-4.14
40624;BMP280;26325;48.594;11.650;2022-12-18T02:44:11;97897.94;;;-4.44
40624;BMP280;26325;48.594;11.650;2022-12-18T02:46:43;97903.97;;;-4.25
40624;BMP280;26325;48.594;11.650;2022-12-18T02:58:03;97904.97;;;-4.17
40624;BMP280;26325;48.594;11.650;2022-12-18T03:01:01;97892.69;;;-4.21
40624;BMP280;26325;48.594;11.650;2022-12-18T03:03:31;97892.47;;;-4.18
40624;BMP280;26325;48.594;11.650;2022-12-18T03:06:30;97902.25;;;-4.24
40624;BMP280;26325;48.594;11.650;2022-12-18T03:09:07;97897.19;;;-4.24
40624;BMP280;26325;48.594;11.650;2022-12-18T03:11:38;97896.16;;;-4.22
40624;BMP280;26325;48.594;11.650;2022-12-18T03:14:25;97899.69;;;-4.14
40624;BMP280;26325;48.594;11.650;2022-12-18T03:16:55;97909.22;;;-4.17
40624;BMP280;26325;48.594;11.650;2022-12-18T03:19:27;97907.91;;;-4.12
40624;BMP280;26325;48.594;11.650;2022-12-18T03:21:56;97906.56;;;-3.96
40624;BMP280;26325;48.594;11.650;2022-12-18T03:24:24;97909.00;;;-3.94
40624;BMP280;26325;48.594;11.650;2022-12-18T03:26:58;97898.38;;;-4.08
40624;BMP280;26325;48.594;11.650;2022-12-18T03:32:09;97902.13;;;-4.23
40624;BMP280;26325;48.594;11.650;2022-12-18T03:34:38;97896.47;;;-4.16
40624;BMP280;26325;48.594;11.650;2022-12-18T03:37:06;97902.22;;;-4.14
40624;BMP280;26325;48.594;11.650;2022-12-18T03:39:35;97897.44;;;-4.27
40624;BMP280;26325;48.594;11.650;2022-12-18T03:42:20;97900.72;;;-4.16
40624;BMP280;26325;48.594;11.650;2022-12-18T03:44:58;97897.88;;;-4.22
40624;BMP280;26325;48.594;11.650;2022-12-18T03:47:47;97899.03;;;-4.26
40624;BMP280;26325;48.594;11.650;2022-12-18T03:50:46;97899.00;;;-4.16
40624;BMP280;26325;48.594;11.650;2022-12-18T03:55:41;97907.44;;;-4.06
40624;BMP280;26325;48.594;11.650;2022-12-18T03:58:08;97899.00;;;-4.16
40624;BMP280;26325;48.594;11.650;2022-12-18T04:00:40;97899.91;;;-4.17
40624;BMP280;26325;48.594;11.650;2022-12-18T04:03:07;97899.81;;;-4.15
40624;BMP280;26325;48.594;11.650;2022-12-18T04:05:36;97899.47;;;-4.21
40624;BMP280;26325;48.594;11.650;2022-12-18T04:08:05;97907.97;;;-4.22
40624;BMP280;26325;48.594;11.650;2022-12-18T04:10:30;97916.69;;;-4.26
40624;BMP280;26325;48.594;11.650;2022-12-18T04:12:57;97904.66;;;-4.23
40624;BMP280;26325;48.594;11.650;2022-12-18T04:15:23;97919.44;;;-4.29
40624;BMP280;26325;48.594;11.650;2022-12-18T04:17:50;97918.00;;;-4.12
40624;BMP280;26325;48.594;11.650;2022-12-18T04:20:16;97911.94;;;-4.09
40624;BMP280;26325;48.594;11.650;2022-12-18T04:22:42;97902.22;;;-4.14
40624;BMP280;26325;48.594;11.650;2022-12-18T04:25:11;97901.84;;;-4.09
40624;BMP280;26325;48.594;11.650;2022-12-18T04:27:36;97906.47;;;-3.94
40624;BMP280;26325;48.594;11.650;2022-12-18T04:30:05;97904.63;;;-3.92
40624;BMP280;26325;48.594;11.650;2022-12-18T04:32:34;97909.44;;;-3.89
40624;BMP280;26325;48.594;11.650;2022-12-18T04:34:59;97911.19;;;-4.00
40624;BMP280;26325;48.594;11.650;2022-12-18T04:37:25;97932.16;;;-3.89
40624;BMP280;26325;48.594;11.650;2022-12-18T04:39:50;97925.47;;;-3.80
40624;BMP280;26325;48.594;11.650;2022-12-18T04:42:16;97931.34;;;-3.70
40624;BMP280;26325;48.594;11.650;2022-12-18T04:44:42;97931.56;;;-3.62
40624;BMP280;26325;48.594;11.650;2022-12-18T04:47:10;97946.22;;;-3.56
40624;BMP280;26325;48.594;11.650;2022-12-18T04:49:37;97946.97;;;-3.65
40624;BMP280;26325;48.594;11.650;2022-12-18T04:52:03;97957.00;;;-3.54
40624;BMP280;26325;48.594;11.650;2022-12-18T04:54:31;97952.50;;;-3.51
40624;BMP280;26325;48.594;11.650;2022-12-18T04:56:59;97951.03;;;-3.53
40624;BMP280;26325;48.594;11.650;2022-12-18T04:59:24;97949.72;;;-3.68
40624;BMP280;26325;48.594;11.650;2022-12-18T05:01:50;97951.50;;;-3.59
40624;BMP280;26325;48.594;11.650;2022-12-18T05:04:15;97949.09;;;-3.61
40624;BMP280;26325;48.594;11.650;2022-12-18T05:06:41;97942.94;;;-3.87
40624;BMP280;26325;48.594;11.650;2022-12-18T05:09:07;97926.38;;;-3.80
40624;BMP280;26325;48.594;11.650;2022-12-18T05:11:32;97933.97;;;-3.80
40624;BMP280;26325;48.594;11.650;2022-12-18T05:13:58;97937.53;;;-3.83
40624;BMP280;26325;48.594;11.650;2022-12-18T05:16:26;97941.88;;;-3.85
40624;BMP280;26325;48.594;11.650;2022-12-18T05:18:51;97951.75;;;-3.82
40624;BMP280;26325;48.594;11.650;2022-12-18T05:21:19;97941.72;;;-3.73
40624;BMP280;26325;48.594;11.650;2022-12-18T05:23:45;97954.66;;;-3.66
40624;BMP280;26325;48.594;11.650;2022-12-18T05:26:15;97959.28;;;-3.71
40624;BMP280;26325;48.594;11.650;2022-12-18T05:28:41;97964.94;;;-3.59
40624;BMP280;26325;48.594;11.650;2022-12-18T05:31:07;97962.38;;;-3.48
40624;BMP280;26325;48.594;11.650;2022-12-18T05:33:35;97971.91;;;-3.51
40624;BMP280;26325;48.594;11.650;2022-12-18T05:36:06;97967.91;;;-3.54
40624;BMP280;26325;48.594;11.650;2022-12-18T05:38:34;97963.41;;;-3.70
40624;BMP280;26325;48.594;11.650;2022-12-18T05:41:02;97968.09;;;-3.66
40624;BMP280;26325;48.594;11.650;2022-12-18T05:43:28;97971.75;;;-3.90
40624;BMP280;26325;48.594;11.650;2022-12-18T05:45:54;97955.50;;;-3.97
40624;BMP280;26325;48.594;11.650;2022-12-18T05:48:22;97963.47;;;-3.81
40624;BMP280;26325;48.594;11.650;2022-12-18T05:50:49;97966.91;;;-3.82
40624;BMP280;26325;48.594;11.650;2022-12-18T05:53:18;97964.06;;;-3.88
40624;BMP280;26325;48.594;11.650;2022-12-18T05:55:44;97975.31;;;-3.92
40624;BMP280;26325;48.594;11.650;2022-12-18T05:58:12;97983.00;;;-3.94
40624;BMP280;26325;48.594;11.650;2022-12-18T06:00:41;97967.69;;;-3.81
40624;BMP280;26325;48.594;11.650;2022-12-18T06:03:08;97977.00;;;-3.82
40624;BMP280;26325;48.594;11.650;2022-12-18T06:05:41;97988.94;;;-3.84
40624;BMP280;26325;48.594;11.650;2022-12-18T06:08:07;97974.44;;;-3.71
40624;BMP280;26325;48.594;11.650;2022-12-18T06:10:33;97977.03;;;-3.62
40624;BMP280;26325;48.594;11.650;2022-12-18T06:13:01;97979.56;;;-3.62
40624;BMP280;26325;48.594;11.650;2022-12-18T06:15:29;97975.81;;;-3.78
40624;BMP280;26325;48.594;11.650;2022-12-18T06:17:57;97978.72;;;-3.82
40624;BMP280;26325;48.594;11.650;2022-12-18T06:20:25;97976.50;;;-3.76
40624;BMP280;26325;48.594;11.650;2022-12-18T06:22:53;97971.34;;;-3.75
40624;BMP280;26325;48.594;11.650;2022-12-18T06:25:18;97980.00;;;-3.88
40624;BMP280;26325;48.594;11.650;2022-12-18T06:27:47;97976.19;;;-3.82
40624;BMP280;26325;48.594;11.650;2022-12-18T06:30:14;97983.34;;;-3.87
40624;BMP280;26325;48.594;11.650;2022-12-18T06:32:40;97986.09;;;-3.90
40624;BMP280;26325;48.594;11.650;2022-12-18T06:35:06;97993.28;;;-3.86
40624;BMP280;26325;48.594;11.650;2022-12-18T06:37:32;97987.38;;;-3.96
40624;BMP280;26325;48.594;11.650;2022-12-18T06:39:59;97997.00;;;-3.90
40624;BMP280;26325;48.594;11.650;2022-12-18T06:42:26;98000.16;;;-3.77
40624;BMP280;26325;48.594;11.650;2022-12-18T06:44:57;98000.28;;;-3.79
40624;BMP280;26325;48.594;11.650;2022-12-18T06:47:23;98010.50;;;-3.80
40624;BMP280;26325;48.594;11.650;2022-12-18T06:49:48;98011.31;;;-3.80
40624;BMP280;26325;48.594;11.650;2022-12-18T06:52:14;98020.25;;;-3.86
40624;BMP280;26325;48.594;11.650;2022-12-18T06:54:42;98018.31;;;-3.83
40624;BMP280;26325;48.594;11.650;2022-12-18T06:57:07;98011.16;;;-3.78
40624;BMP280;26325;48.594;11.650;2022-12-18T06:59:33;98013.06;;;-3.60
40624;BMP280;26325;48.594;11.650;2022-12-18T07:01:59;98018.75;;;-3.47
40624;BMP280;26325;48.594;11.650;2022-12-18T07:04:31;98009.19;;;-3.44
40624;BMP280;26325;48.594;11.650;2022-12-18T07:06:57;98013.13;;;-3.51
40624;BMP280;26325;48.594;11.650;2022-12-18T07:09:23;98023.34;;;-3.72
40624;BMP280;26325;48.594;11.650;2022-12-18T07:11:49;98028.97;;;-3.49
40624;BMP280;26325;48.594;11.650;2022-12-18T07:14:14;98024.59;;;-3.47
40624;BMP280;26325;48.594;11.650;2022-12-18T07:16:40;98034.91;;;-3.70
40624;BMP280;26325;48.594;11.650;2022-12-18T07:19:06;98042.22;;;-3.56
40624;BMP280;26325;48.594;11.650;2022-12-18T07:21:33;98034.25;;;-3.72
40624;BMP280;26325;48.594;11.650;2022-12-18T07:23:59;98030.38;;;-3.86
40624;BMP280;26325;48.594;11.650;2022-12-18T07:26:26;98048.03;;;-3.86
40624;BMP280;26325;48.594;11.650;2022-12-18T07:28:55;98043.69;;;-3.84
40624;BMP280;26325;48.594;11.650;2022-12-18T07:31:23;98043.13;;;-3.88
40624;BMP280;26325;48.594;11.650;2022-12-18T07:33:50;98046.69;;;-3.90
40624;BMP280;26325;48.594;11.650;2022-12-18T07:36:19;98036.00;;;-3.94
40624;BMP280;26325;48.594;11.650;2022-12-18T07:38:49;98044.41;;;-3.93
40624;BMP280;26325;48.594;11.650;2022-12-18T07:41:18;98045.50;;;-3.86
40624;BMP280;26325;48.594;11.650;2022-12-18T07:43:44;98045.28;;;-3.83
40624;BMP280;26325;48.594;11.650;2022-12-18T07:46:13;98043.22;;;-3.79
40624;BMP280;26325;48.594;11.650;2022-12-18T07:48:43;98038.84;;;-3.77
40624;BMP280;26325;48.594;11.650;2022-12-18T07:51:09;98030.59;;;-3.79
40624;BMP280;26325;48.594;11.650;2022-12-18T07:53:40;98031.63;;;-3.81
40624;BMP280;26325;48.594;11.650;2022-12-18T07:56:11;98041.09;;;-3.63
40624;BMP280;26325;48.594;11.650;2022-12-18T07:58:37;98045.44;;;-3.54
40624;BMP280;26325;48.594;11.650;2022-12-18T08:01:08;98040.03;;;-3.61
40624;BMP280;26325;48.594;11.650;2022-12-18T08:03:34;98039.28;;;-3.72
40624;BMP280;26325;48.594;11.650;2022-12-18T08:06:06;98039.91;;;-3.59
40624;BMP280;26325;48.594;11.650;2022-12-18T08:08:33;98031.59;;;-3.70
40624;BMP280;26325;48.594;11.650;2022-12-18T08:11:01;98034.63;;;-3.56
40624;BMP280;26325;48.594;11.650;2022-12-18T08:13:29;98029.72;;;-3.38
40624;BMP280;26325;48.594;11.650;2022-12-18T08:16:04;98032.75;;;-3.23
40624;BMP280;26325;48.594;11.650;2022-12-18T08:18:32;98048.78;;;-3.14
40624;BMP280;26325;48.594;11.650;2022-12-18T08:21:11;98043.56;;;-3.02
40624;BMP280;26325;48.594;11.650;2022-12-18T08:23:37;98053.09;;;-3.05
40624;BMP280;26325;48.594;11.650;2022-12-18T08:26:03;98056.91;;;-2.90
40624;BMP280;26325;48.594;11.650;2022-12-18T08:28:29;98061.66;;;-2.97
40624;BMP280;26325;48.594;11.650;2022-12-18T08:30:54;98068.13;;;-2.84
40624;BMP280;26325;48.594;11.650;2022-12-18T08:33:20;98073.75;;;-2.80
40624;BMP280;26325;48.594;11.650;2022-12-18T08:35:46;98077.09;;;-3.00
40624;BMP280;26325;48.594;11.650;2022-12-18T08:38:13;98078.81;;;-3.00
40624;BMP280;26325;48.594;11.650;2022-12-18T08:40:39;98068.22;;;-3.14
40624;BMP280;26325;48.594;11.650;2022-12-18T08:43:05;98067.06;;;-3.10
40624;BMP280;26325;48.594;11.650;2022-12-18T08:45:51;98071.13;;;-3.19
40624;BMP280;26325;48.594;11.650;2022-12-18T08:48:17;98080.00;;;-3.35
40624;BMP280;26325;48.594;11.650;2022-12-18T08:50:43;98079.69;;;-3.10
40624;BMP280;26325;48.594;11.650;2022-12-18T08:53:08;98087.94;;;-3.08
40624;BMP280;26325;48.594;11.650;2022-12-18T08:55:37;98102.22;;;-3.18
40624;BMP280;26325;48.594;11.650;2022-12-18T08:58:03;98094.22;;;-3.23
40624;BMP280;26325;48.594;11.650;2022-12-18T09:00:31;98096.84;;;-3.24
40624;BMP280;26325;48.594;11.650;2022-12-18T09:02:58;98098.22;;;-3.01
40624;BMP280;26325;48.594;11.650;2022-12-18T09:05:27;98089.66;;;-2.89
40624;BMP280;26325;48.594;11.650;2022-12-18T09:07:52;98085.47;;;-2.79
40624;BMP280;26325;48.594;11.650;2022-12-18T09:10:18;98088.25;;;-2.82
40624;BMP280;26325;48.594;11.650;2022-12-18T09:12:43;98090.19;;;-2.95
40624;BMP280;26325;48.594;11.650;2022-12-18T09:15:09;98084.97;;;-3.13
40624;BMP280;26325;48.594;11.650;2022-12-18T09:17:35;98081.97;;;-2.87
40624;BMP280;26325;48.594;11.650;2022-12-18T09:20:01;98083.00;;;-2.90
40624;BMP280;26325;48.594;11.650;2022-12-18T09:22:26;98085.66;;;-2.91
40624;BMP280;26325;48.594;11.650;2022-12-18T09:24:52;98083.69;;;-2.68
40624;BMP280;26325;48.594;11.650;2022-12-18T09:27:18;98080.03;;;-2.75
40624;BMP280;26325;48.594;11.650;2022-12-18T09:29:43;98080.59;;;-2.71
40624;BMP280;26325;48.594;11.650;2022-12-18T09:32:14;98079.78;;;-2.72
40624;BMP280;26325;48.594;11.650;2022-12-18T09:34:39;98084.16;;;-2.54
40624;BMP280;26325;48.594;11.650;2022-12-18T09:37:07;98080.47;;;-2.50
40624;BMP280;26325;48.594;11.650;2022-12-18T09:39:35;98075.63;;;-2.53
40624;BMP280;26325;48.594;11.650;2022-12-18T09:42:01;98067.97;;;-2.42
40624;BMP280;26325;48.594;11.650;2022-12-18T09:44:44;98065.16;;;-2.39
40624;BMP280;26325;48.594;11.650;2022-12-18T09:47:23;98067.44;;;-2.66
40624;BMP280;26325;48.594;11.650;2022-12-18T09:49:56;98056.00;;;-3.09
40624;BMP280;26325;48.594;11.650;2022-12-18T09:52:30;98058.09;;;-3.14
40624;BMP280;26325;48.594;11.650;2022-12-18T09:57:48;98055.81;;;-3.17
40624;BMP280;26325;48.594;11.650;2022-12-18T10:00:21;98039.47;;;-3.33
40624;BMP280;26325;48.594;11.650;2022-12-18T10:02:49;98048.03;;;-3.25
40624;BMP280;26325;48.594;11.650;2022-12-18T10:05:23;98042.50;;;-3.39
40624;BMP280;26325;48.594;11.650;2022-12-18T10:08:25;98049.09;;;-3.58
40624;BMP280;26325;48.594;11.650;2022-12-18T10:10:57;98045.06;;;-3.50
40624;BMP280;26325;48.594;11.650;2022-12-18T10:13:57;98040.31;;;-3.43
40624;BMP280;26325;48.594;11.650;2022-12-18T10:16:40;98045.84;;;-3.49
40624;BMP280;26325;48.594;11.650;2022-12-18T10:27:30;98041.56;;;-3.38
40624;BMP280;26325;48.594;11.650;2022-12-18T10:29:57;98046.25;;;-3.34
40624;BMP280;26325;48.594;11.650;2022-12-18T10:32:29;98051.47;;;-3.26
40624;BMP280;26325;48.594;11.650;2022-12-18T10:34:57;98038.31;;;-3.29
40624;BMP280;26325;48.594;11.650;2022-12-18T10:37:29;98042.50;;;-3.19
40624;BMP280;26325;48.594;11.650;2022-12-18T10:40:15;98042.44;;;-3.08
40624;BMP280;26325;48.594;11.650;2022-12-18T10:42:41;98048.63;;;-3.02
40624;BMP280;26325;48.594;11.650;2022-12-18T10:45:16;98042.50;;;-2.99
40624;BMP280;26325;48.594;11.650;2022-12-18T10:47:48;98046.75;;;-3.00
40624;BMP280;26325;48.594;11.650;2022-12-18T10:50:31;98042.84;;;-2.84
40624;BMP280;26325;48.594;11.650;2022-12-18T10:53:02;98042.25;;;-2.76
40624;BMP280;26325;48.594;11.650;2022-12-18T10:55:39;98042.81;;;-2.64
40624;BMP280;26325;48.594;11.650;2022-12-18T10:58:27;98047.41;;;-2.48
40624;BMP280;26325;48.594;11.650;2022-12-18T11:04:00;98044.38;;;-2.72
40624;BMP280;26325;48.594;11.650;2022-12-18T11:06:26;98040.91;;;-2.51
40624;BMP280;26325;48.594;11.650;2022-12-18T11:09:19;98030.81;;;-2.42
40624;BMP280;26325;48.594;11.650;2022-12-18T11:12:02;98035.75;;;-2.69
40624;BMP280;26325;48.594;11.650;2022-12-18T11:14:34;98029.31;;;-2.73
40624;BMP280;26325;48.594;11.650;2022-12-18T11:17:30;98028.56;;;-2.65
40624;BMP280;26325;48.594;11.650;2022-12-18T11:20:18;98040.28;;;-2.64
40624;BMP280;26325;48.594;11.650;2022-12-18T11:22:58;98033.91;;;-2.67
40624;BMP280;26325;48.594;11.650;2022-12-18T11:25:26;98036.50;;;-2.78
40624;BMP280;26325;48.594;11.650;2022-12-18T11:27:58;98042.13;;;-2.66
40624;BMP280;26325;48.594;11.650;2022-12-18T11:30:29;98045.19;;;-2.71
40624;BMP280;26325;48.594;11.650;2022-12-18T11:33:20;98046.72;;;-2.60
40624;BMP280;26325;48.594;11.650;2022-12-18T11:36:00;98054.78;;;-2.66
40624;BMP280;26325;48.594;11.650;2022-12-18T11:38:32;98039.00;;;-2.58
40624;BMP280;26325;48.594;11.650;2022-12-18T11:41:29;98035.56;;;-2.48
40624;BMP280;26325;48.594;11.650;2022-12-18T11:44:25;98019.84;;;-2.51
40624;BMP280;26325;48.594;11.650;2022-12-18T11:46:55;98028.16;;;-2.31
40624;BMP280;26325;48.594;11.650;2022-12-18T11:49:32;98025.19;;;-2.45
40624;BMP280;26325;48.594;11.650;2022-12-18T11:52:31;98026.06;;;-2.55
40624;BMP280;26325;48.594;11.650;2022-12-18T11:55:10;98016.34;;;-2.60
40624;BMP280;26325;48.594;11.650;2022-12-18T11:57:52;98014.47;;;-2.58
40624;BMP280;26325;48.594;11.650;2022-12-18T12:00:25;98010.97;;;-2.66
40624;BMP280;26325;48.594;11.650;2022-12-18T12:03:22;98011.94;;;-2.58
40624;BMP280;26325;48.594;11.650;2022-12-18T12:20:36;97998.22;;;-2.65
40624;BMP280;26325;48.594;11.650;2022-12-18T12:26:06;97985.22;;;-2.51
40624;BMP280;26325;48.594;11.650;2022-12-18T12:42:41;97985.13;;;-2.31
40624;BMP280;26325;48.594;11.650;2022-12-18T12:45:38;97979.91;;;-2.39
40624;BMP280;26325;48.594;11.650;2022-12-18T12:48:07;97979.78;;;-2.37
40624;BMP280;26325;48.594;11.650;2022-12-18T12:50:37;97983.41;;;-2.30
40624;BMP280;26325;48.594;11.650;2022-12-18T12:53:09;97987.56;;;-2.20
40624;BMP280;26325;48.594;11.650;2022-12-18T12:55:42;97982.59;;;-2.31
40624;BMP280;26325;48.594;11.650;2022-12-18T12:59:10;97985.00;;;-2.29
40624;BMP280;26325;48.594;11.650;2022-12-18T13:04:50;97995.06;;;-2.48
40624;BMP280;26325;48.594;11.650;2022-12-18T13:07:34;97997.47;;;-2.47
40624;BMP280;26325;48.594;11.650;2022-12-18T13:13:06;98005.72;;;-2.54
40624;BMP280;26325;48.594;11.650;2022-12-18T13:15:40;98006.13;;;-2.49
40624;BMP280;26325;48.594;11.650;2022-12-18T13:31:06;97986.97;;;-1.85
40624;BMP280;26325;48.594;11.650;2022-12-18T13:33:44;97982.91;;;-2.06
40624;BMP280;26325;48.594;11.650;2022-12-18T13:41:42;97972.16;;;-1.90
40624;BMP280;26325;48.594;11.650;2022-12-18T13:44:40;97986.38;;;-2.26
40624;BMP280;26325;48.594;11.650;2022-12-18T13:47:37;97980.94;;;-2.60
40624;BMP280;26325;48.594;11.650;2022-12-18T13:50:24;97978.13;;;-2.57
40624;BMP280;26325;48.594;11.650;2022-12-18T13:52:51;97975.56;;;-2.66
40624;BMP280;26325;48.594;11.650;2022-12-18T13:55:19;97972.41;;;-2.88
40624;BMP280;26325;48.594;11.650;2022-12-18T13:57:46;97962.47;;;-2.80
40624;BMP280;26325;48.594;11.650;2022-12-18T14:00:29;97966.03;;;-2.83
40624;BMP280;26325;48.594;11.650;2022-12-18T14:02:56;97968.97;;;-2.87
40624;BMP280;26325;48.594;11.650;2022-12-18T14:08:01;97982.38;;;-3.16
40624;BMP280;26325;48.594;11.650;2022-12-18T14:10:28;97981.00;;;-3.00
40624;BMP280;26325;48.594;11.650;2022-12-18T14:12:53;97982.91;;;-2.92
40624;BMP280;26325;48.594;11.650;2022-12-18T14:20:57;97988.47;;;-2.98
40624;BMP280;26325;48.594;11.650;2022-12-18T14:23:41;97993.00;;;-2.92
40624;BMP280;26325;48.594;11.650;2022-12-18T14:26:28;97996.56;;;-3.04
40624;BMP280;26325;48.594;11.650;2022-12-18T14:28:56;97995.31;;;-3.09
40624;BMP280;26325;48.594;11.650;2022-12-18T14:31:30;97985.88;;;-3.07
40624;BMP280;26325;48.594;11.650;2022-12-18T14:33:56;97989.22;;;-3.07
40624;BMP280;26325;48.594;11.650;2022-12-18T14:36:28;97987.31;;;-3.14
40624;BMP280;26325;48.594;11.650;2022-12-18T14:38:58;97987.75;;;-3.29
40624;BMP280;26325;48.594;11.650;2022-12-18T14:41:25;97990.19;;;-3.28
40624;BMP280;26325;48.594;11.650;2022-12-18T14:43:53;97986.28;;;-3.32
40624;BMP280;26325;48.594;11.650;2022-12-18T14:46:28;97995.88;;;-3.26
40624;BMP280;26325;48.594;11.650;2022-12-18T14:51:33;97985.16;;;-3.39
40624;BMP280;26325;48.594;11.650;2022-12-18T14:54:15;97987.47;;;-3.36
40624;BMP280;26325;48.594;11.650;2022-12-18T14:56:48;97981.34;;;-3.53
40624;BMP280;26325;48.594;11.650;2022-12-18T14:59:19;97986.75;;;-3.58
40624;BMP280;26325;48.594;11.650;2022-12-18T15:07:23;97979.56;;;-3.62
40624;BMP280;26325;48.594;11.650;2022-12-18T15:13:09;97974.34;;;-3.80
40624;BMP280;26325;48.594;11.650;2022-12-18T15:15:45;97965.28;;;-3.83
40624;BMP280;26325;48.594;11.650;2022-12-18T15:18:18;97973.56;;;-3.81
40624;BMP280;26325;48.594;11.650;2022-12-18T15:20:53;97980.72;;;-3.66
40624;BMP280;26325;48.594;11.650;2022-12-18T15:23:34;97985.75;;;-3.66
40624;BMP280;26325;48.594;11.650;2022-12-18T15:26:04;97985.59;;;-3.54
40624;BMP280;26325;48.594;11.650;2022-12-18T15:28:43;97982.44;;;-3.66
40624;BMP280;26325;48.594;11.650;2022-12-18T15:36:16;97994.03;;;-3.44
40624;BMP280;26325;48.594;11.650;2022-12-18T15:38:54;97999.19;;;-3.65
40624;BMP280;26325;48.594;11.650;2022-12-18T15:41:22;98007.28;;;-3.51
40624;BMP280;26325;48.594;11.650;2022-12-18T15:43:51;98001.13;;;-3.58
40624;BMP280;26325;48.594;11.650;2022-12-18T15:46:22;98007.38;;;-3.73
40624;BMP280;26325;48.594;11.650;2022-12-18T15:48:54;98006.28;;;-3.90
40624;BMP280;26325;48.594;11.650;2022-12-18T15:53:58;98014.09;;;-3.93
40624;BMP280;26325;48.594;11.650;2022-12-18T15:56:24;98019.72;;;-3.90
40624;BMP280;26325;48.594;11.650;2022-12-18T15:59:18;98008.03;;;-4.01
40624;BMP280;26325;48.594;11.650;2022-12-18T16:01:49;98011.94;;;-3.98
40624;BMP280;26325;48.594;11.650;2022-12-18T16:04:17;97998.75;;;-4.01
40624;BMP280;26325;48.594;11.650;2022-12-18T16:06:46;98002.22;;;-4.13
40624;BMP280;26325;48.594;11.650;2022-12-18T16:09:11;97998.31;;;-4.06
40624;BMP280;26325;48.594;11.650;2022-12-18T16:11:39;97990.19;;;-4.20
40624;BMP280;26325;48.594;11.650;2022-12-18T16:14:28;97992.56;;;-4.08
40624;BMP280;26325;48.594;11.650;2022-12-18T16:17:02;97991.34;;;-4.13
40624;BMP280;26325;48.594;11.650;2022-12-18T16:19:29;97996.81;;;-3.98
40624;BMP280;26325;48.594;11.650;2022-12-18T16:21:57;97986.63;;;-4.18
40624;BMP280;26325;48.594;11.650;2022-12-18T16:24:26;97990.16;;;-3.99
40624;BMP280;26325;48.594;11.650;2022-12-18T16:26:52;97981.38;;;-4.15
40624;BMP280;26325;48.594;11.650;2022-12-18T16:29:20;97987.13;;;-4.23
40624;BMP280;26325;48.594;11.650;2022-12-18T16:31:50;97984.22;;;-4.19
40624;BMP280;26325;48.594;11.650;2022-12-18T16:34:21;97984.13;;;-4.18